Alpha Afovos — SZSJ — position and weather

sailwx.info

Track history (hours):
 
Tides and Currents Weather Stations Pressure Air Temp Water Temp Dewpoint Dewpoint Depression Visibility Wind Speed Wind Dir Waves Ship Positions

Alpha Afovos

Last reported at 2016-Feb-10 23:27 UTC. Time now 2016-Feb-11 19:13 UTC.
Position N 23°39' E 118°19'.

Length 223 m; draft 7.5 m.

Type: Cargo ship. MMSI: 239802000.

Date/timePositionNaut miles runAvg speedWind from/ knotsBaromVisibWave heightAir tempDewpointWater temp
2016-Feb-10 23:27N 23°39' E 118°19'910.4
2016-Feb-10 22:33N 23°45' E 118°27'4511.3
2016-Feb-10 18:33N 24°14' E 119°05'1211.5
2016-Feb-10 17:30N 24°23' E 119°14'1010.8
2016-Feb-10 16:33N 24°30' E 119°22'10 9.5
2016-Feb-10 15:31N 24°36' E 119°30'9 9.4
2016-Feb-10 14:33N 24°42' E 119°38'1010.1
2016-Feb-10 13:33N 24°49' E 119°46'1010.4
2016-Feb-10 12:33N 24°57' E 119°54'1010.1
2016-Feb-10 11:32N 25°03' E 120°03'  
2016-Feb-06 02:10N 38°55' E 118°06'4 6.3
2016-Feb-06 01:31N 38°56' E 118°01'1110.8
2016-Feb-06 00:32N 38°58' E 117°48'2 2.3
2016-Feb-05 23:28N 38°59' E 117°45'0 0.0
2016-Feb-05 22:28N 38°59' E 117°45'0 0.0
2016-Feb-05 21:22N 38°59' E 117°45'0 0.0
2016-Feb-05 20:28N 38°59' E 117°45'0 0.0
2016-Feb-05 19:16N 38°59' E 117°45'0 0.0
2016-Feb-05 18:28N 38°59' E 117°45'0 0.0
2016-Feb-05 17:28N 38°59' E 117°45'0 0.0
2016-Feb-05 16:28N 38°59' E 117°45'0 0.0
2016-Feb-05 15:28N 38°59' E 117°45'0 0.0
2016-Feb-05 14:28N 38°59' E 117°45'0 0.0
2016-Feb-05 13:22N 38°59' E 117°45'0 0.0
2016-Feb-05 12:22N 38°59' E 117°45'0 0.0
2016-Feb-05 11:28N 38°59' E 117°45'0 0.0
2016-Feb-05 10:28N 38°59' E 117°45'0 0.0
2016-Feb-05 09:28N 38°59' E 117°45'0 0.0
2016-Feb-05 08:28N 38°59' E 117°45'0 0.0
2016-Feb-05 07:22N 38°59' E 117°45'0 0.0
2016-Feb-05 06:16N 38°59' E 117°45'0 0.0
2016-Feb-05 05:28N 38°59' E 117°45'0 0.0
2016-Feb-05 04:22N 38°59' E 117°45'0 0.0
2016-Feb-05 03:28N 38°59' E 117°45'0 0.0
2016-Feb-05 02:28N 38°59' E 117°45'0 0.0
2016-Feb-05 01:04N 38°59' E 117°45'0 0.0
2016-Feb-05 00:16N 38°59' E 117°45'0 0.0
2016-Feb-04 23:28N 38°59' E 117°45'0 0.0
2016-Feb-04 22:22N 38°59' E 117°45'0 0.0
2016-Feb-04 21:28N 38°59' E 117°45'0 0.0
2016-Feb-04 20:28N 38°59' E 117°45'0 0.0
2016-Feb-04 19:28N 38°59' E 117°45'0 0.0
2016-Feb-04 18:28N 38°59' E 117°45'0 0.0
2016-Feb-04 17:28N 38°59' E 117°45'0 0.0
2016-Feb-04 16:28N 38°59' E 117°45'0 0.0
2016-Feb-04 15:28N 38°59' E 117°45'0 0.0
2016-Feb-04 14:16N 38°59' E 117°45'0 0.0
2016-Feb-04 13:28N 38°59' E 117°45'0 0.0
2016-Feb-04 12:16N 38°59' E 117°45'0 0.0
2016-Feb-04 11:28N 38°59' E 117°45'0 0.0
2016-Feb-04 10:28N 38°59' E 117°45'0 0.0
2016-Feb-04 09:28N 38°59' E 117°45'0 0.0
2016-Feb-04 08:28N 38°59' E 117°45'0 0.0
2016-Feb-04 07:28N 38°59' E 117°45'0 0.0
2016-Feb-04 06:28N 38°59' E 117°45'0 0.0
2016-Feb-04 05:28N 38°59' E 117°45'0 0.0
2016-Feb-04 04:28N 38°59' E 117°45'0 0.0
2016-Feb-04 03:28N 38°59' E 117°45'0 0.0
2016-Feb-04 02:28N 38°59' E 117°45'0 0.0
2016-Feb-04 01:22N 38°59' E 117°45'0 0.0
2016-Feb-04 00:28N 38°59' E 117°45'0 0.0
2016-Feb-03 23:28N 38°59' E 117°45'0 0.0
2016-Feb-03 22:28N 38°59' E 117°45'0 0.0
2016-Feb-03 21:16N 38°59' E 117°45'0 0.0
2016-Feb-03 20:16N 38°59' E 117°45'0 0.0
2016-Feb-03 19:28N 38°59' E 117°45'0 0.0
2016-Feb-03 18:28N 38°59' E 117°45'0 0.0
2016-Feb-03 17:28N 38°59' E 117°45'0 0.0
2016-Feb-03 16:22N 38°59' E 117°45'0 0.0
2016-Feb-03 15:28N 38°59' E 117°45'0 0.0
2016-Feb-03 14:22N 38°59' E 117°45'0 0.0
2016-Feb-03 13:22N 38°59' E 117°45'0 0.0
2016-Feb-03 12:28N 38°59' E 117°45'1 0.7
2016-Feb-03 11:33N 38°59' E 117°45'10 9.2
2016-Feb-03 10:31N 38°57' E 117°57'  
Track history (hours):
 
Tides and Currents Weather Stations Pressure Air Temp Water Temp Dewpoint Dewpoint Depression Visibility Wind Speed Wind Dir Waves Ship Positions

Alpha Afovos

Last reported at 2016-Feb-10 23:27 UTC. Time now 2016-Feb-11 19:13 UTC.
Position N 23°39' E 118°19'.

Length 223 m; draft 7.5 m.

Type: Cargo ship. MMSI: 239802000.

Date/timePositionNaut miles runAvg speedWind from/ knotsBaromVisibWave heightAir tempDewpointWater temp
2016-Feb-10 23:27N 23°39' E 118°19'910.4
2016-Feb-10 22:33N 23°45' E 118°27'4511.3
2016-Feb-10 18:33N 24°14' E 119°05'1211.5
2016-Feb-10 17:30N 24°23' E 119°14'1010.8
2016-Feb-10 16:33N 24°30' E 119°22'10 9.5
2016-Feb-10 15:31N 24°36' E 119°30'9 9.4
2016-Feb-10 14:33N 24°42' E 119°38'1010.1
2016-Feb-10 13:33N 24°49' E 119°46'1010.4
2016-Feb-10 12:33N 24°57' E 119°54'1010.1
2016-Feb-10 11:32N 25°03' E 120°03'  
2016-Feb-06 02:10N 38°55' E 118°06'4 6.3
2016-Feb-06 01:31N 38°56' E 118°01'1110.8
2016-Feb-06 00:32N 38°58' E 117°48'2 2.3
2016-Feb-05 23:28N 38°59' E 117°45'0 0.0
2016-Feb-05 22:28N 38°59' E 117°45'0 0.0
2016-Feb-05 21:22N 38°59' E 117°45'0 0.0
2016-Feb-05 20:28N 38°59' E 117°45'0 0.0
2016-Feb-05 19:16N 38°59' E 117°45'0 0.0
2016-Feb-05 18:28N 38°59' E 117°45'0 0.0
2016-Feb-05 17:28N 38°59' E 117°45'0 0.0
2016-Feb-05 16:28N 38°59' E 117°45'0 0.0
2016-Feb-05 15:28N 38°59' E 117°45'0 0.0
2016-Feb-05 14:28N 38°59' E 117°45'0 0.0
2016-Feb-05 13:22N 38°59' E 117°45'0 0.0
2016-Feb-05 12:22N 38°59' E 117°45'0 0.0
2016-Feb-05 11:28N 38°59' E 117°45'0 0.0
2016-Feb-05 10:28N 38°59' E 117°45'0 0.0
2016-Feb-05 09:28N 38°59' E 117°45'0 0.0
2016-Feb-05 08:28N 38°59' E 117°45'0 0.0
2016-Feb-05 07:22N 38°59' E 117°45'0 0.0
2016-Feb-05 06:16N 38°59' E 117°45'0 0.0
2016-Feb-05 05:28N 38°59' E 117°45'0 0.0
2016-Feb-05 04:22N 38°59' E 117°45'0 0.0
2016-Feb-05 03:28N 38°59' E 117°45'0 0.0
2016-Feb-05 02:28N 38°59' E 117°45'0 0.0
2016-Feb-05 01:04N 38°59' E 117°45'0 0.0
2016-Feb-05 00:16N 38°59' E 117°45'0 0.0
2016-Feb-04 23:28N 38°59' E 117°45'0 0.0
2016-Feb-04 22:22N 38°59' E 117°45'0 0.0
2016-Feb-04 21:28N 38°59' E 117°45'0 0.0
2016-Feb-04 20:28N 38°59' E 117°45'0 0.0
2016-Feb-04 19:28N 38°59' E 117°45'0 0.0
2016-Feb-04 18:28N 38°59' E 117°45'0 0.0
2016-Feb-04 17:28N 38°59' E 117°45'0 0.0
2016-Feb-04 16:28N 38°59' E 117°45'0 0.0
2016-Feb-04 15:28N 38°59' E 117°45'0 0.0
2016-Feb-04 14:16N 38°59' E 117°45'0 0.0
2016-Feb-04 13:28N 38°59' E 117°45'0 0.0
2016-Feb-04 12:16N 38°59' E 117°45'0 0.0
2016-Feb-04 11:28N 38°59' E 117°45'0 0.0
2016-Feb-04 10:28N 38°59' E 117°45'0 0.0
2016-Feb-04 09:28N 38°59' E 117°45'0 0.0
2016-Feb-04 08:28N 38°59' E 117°45'0 0.0
2016-Feb-04 07:28N 38°59' E 117°45'0 0.0
2016-Feb-04 06:28N 38°59' E 117°45'0 0.0
2016-Feb-04 05:28N 38°59' E 117°45'0 0.0
2016-Feb-04 04:28N 38°59' E 117°45'0 0.0
2016-Feb-04 03:28N 38°59' E 117°45'0 0.0
2016-Feb-04 02:28N 38°59' E 117°45'0 0.0
2016-Feb-04 01:22N 38°59' E 117°45'0 0.0
2016-Feb-04 00:28N 38°59' E 117°45'0 0.0
2016-Feb-03 23:28N 38°59' E 117°45'0 0.0
2016-Feb-03 22:28N 38°59' E 117°45'0 0.0
2016-Feb-03 21:16N 38°59' E 117°45'0 0.0
2016-Feb-03 20:16N 38°59' E 117°45'0 0.0
2016-Feb-03 19:28N 38°59' E 117°45'0 0.0
2016-Feb-03 18:28N 38°59' E 117°45'0 0.0
2016-Feb-03 17:28N 38°59' E 117°45'0 0.0
2016-Feb-03 16:22N 38°59' E 117°45'0 0.0
2016-Feb-03 15:28N 38°59' E 117°45'0 0.0
2016-Feb-03 14:22N 38°59' E 117°45'0 0.0
2016-Feb-03 13:22N 38°59' E 117°45'0 0.0
2016-Feb-03 12:28N 38°59' E 117°45'1 0.7
2016-Feb-03 11:33N 38°59' E 117°45'10 9.2
2016-Feb-03 10:31N 38°57' E 117°57'  

Dump ship's entire track history